createdAt,value
2017-06-12T00:02:06.618Z,1.37
2017-06-12T00:04:34.845Z,1.13
2017-06-12T00:07:01.223Z,1.60
2017-06-12T00:09:27.697Z,1.90
2017-06-12T00:11:54.173Z,1.63
2017-06-12T00:14:21.407Z,1.10
2017-06-12T00:16:48.249Z,1.60
2017-06-12T00:19:16.812Z,1.17
2017-06-12T00:21:44.072Z,1.60
2017-06-12T00:24:10.582Z,2.63
2017-06-12T00:26:38.793Z,1.87
2017-06-12T00:29:06.065Z,1.77
2017-06-12T00:31:32.539Z,1.53
2017-06-12T00:34:00.785Z,1.57
2017-06-12T00:36:29.017Z,1.67
2017-06-12T00:38:55.489Z,2.07
2017-06-12T00:41:21.985Z,2.03
2017-06-12T00:43:48.522Z,1.90
2017-06-12T00:46:15.769Z,1.40
2017-06-12T00:48:42.618Z,1.50
2017-06-12T00:51:10.917Z,1.40
2017-06-12T00:53:39.222Z,2.10
2017-06-12T00:56:05.717Z,1.90
2017-06-12T00:58:33.071Z,1.80
2017-06-12T01:00:59.557Z,2.00
2017-06-12T01:03:26.796Z,1.50
2017-06-12T01:05:55.018Z,1.80
2017-06-12T01:08:23.222Z,1.53
2017-06-12T01:10:50.841Z,1.90
2017-06-12T01:13:17.305Z,2.13
2017-06-12T01:15:43.796Z,1.70
2017-06-12T01:18:10.283Z,1.70
2017-06-12T01:20:37.525Z,1.57
2017-06-12T01:23:05.841Z,1.30
2017-06-12T01:25:33.180Z,2.20
2017-06-12T01:27:59.658Z,2.20
2017-06-12T01:30:26.558Z,2.10
2017-06-12T01:32:53.405Z,1.40
2017-06-12T01:35:20.743Z,1.60
2017-06-12T01:37:49.343Z,1.70
2017-06-12T01:40:17.611Z,1.60
2017-06-12T01:42:44.509Z,1.60
2017-06-12T01:45:11.410Z,2.20
2017-06-12T01:47:38.285Z,1.90
2017-06-12T01:50:05.137Z,1.40
2017-06-12T01:52:33.350Z,1.50
2017-06-12T01:55:01.573Z,1.67
2017-06-12T01:57:28.085Z,1.60
2017-06-12T01:59:54.566Z,1.70
2017-06-12T02:02:21.065Z,2.07
2017-06-12T02:04:47.918Z,2.00
2017-06-12T02:07:14.429Z,1.33
2017-06-12T02:09:40.920Z,1.23
2017-06-12T02:12:09.136Z,1.50
2017-06-12T02:14:35.606Z,1.73
2017-06-12T02:17:02.090Z,1.80
2017-06-12T02:19:28.934Z,2.00
2017-06-12T02:21:55.414Z,1.40
2017-06-12T02:24:22.390Z,1.83
2017-06-12T02:26:50.639Z,2.13
2017-06-12T02:29:19.001Z,1.43
2017-06-12T02:31:45.500Z,2.00
2017-06-12T02:34:12.377Z,1.77
2017-06-12T02:36:39.629Z,1.80
2017-06-12T02:39:06.273Z,1.20
2017-06-12T02:41:32.755Z,1.67
2017-06-12T02:44:00.994Z,1.30
2017-06-12T02:46:29.374Z,1.60
2017-06-12T02:48:56.230Z,2.13
2017-06-12T02:51:24.197Z,1.20
2017-06-12T02:53:50.669Z,1.33
2017-06-12T02:56:17.129Z,1.40
2017-06-12T02:58:45.358Z,1.57
2017-06-12T03:01:13.609Z,1.40
2017-06-12T03:03:40.100Z,1.90
2017-06-12T03:06:06.702Z,2.43
2017-06-12T03:08:34.906Z,1.83
2017-06-12T03:11:02.208Z,1.43
2017-06-12T03:13:29.104Z,1.13
2017-06-12T03:15:57.353Z,1.73
2017-06-12T03:18:24.597Z,2.00
2017-06-12T03:20:52.222Z,2.57
2017-06-12T03:23:18.737Z,2.10
2017-06-12T03:25:45.207Z,1.70
2017-06-12T03:28:12.867Z,1.27
2017-06-12T03:30:41.123Z,1.83
2017-06-12T03:33:09.368Z,1.43
2017-06-12T03:35:36.735Z,2.43
2017-06-12T03:38:02.982Z,2.10
2017-06-12T03:40:29.287Z,2.50
2017-06-12T03:42:55.529Z,1.33
2017-06-12T03:45:22.893Z,1.17
2017-06-12T03:47:50.872Z,1.40
2017-06-12T03:50:17.869Z,1.43
2017-06-12T03:52:45.855Z,1.27
2017-06-12T03:55:12.490Z,1.70
2017-06-12T03:57:38.803Z,1.73
2017-06-12T04:00:06.881Z,1.63
2017-06-12T04:02:34.860Z,1.37
2017-06-12T04:05:02.858Z,1.90
2017-06-12T04:07:29.507Z,2.50
2017-06-12T04:09:55.762Z,1.90
2017-06-12T04:12:23.290Z,1.80
2017-06-12T04:14:49.911Z,1.70
2017-06-12T04:17:16.161Z,1.27
2017-06-12T04:19:44.125Z,1.90
2017-06-12T04:22:12.149Z,1.50
2017-06-12T04:24:40.169Z,1.80
2017-06-12T04:27:07.231Z,2.53
2017-06-12T04:29:33.511Z,2.30
2017-06-12T04:32:00.129Z,2.00
2017-06-12T04:34:26.789Z,1.97
2017-06-12T04:36:54.789Z,2.80
2017-06-12T04:39:22.631Z,2.63
2017-06-12T04:41:48.890Z,3.70
2017-06-12T04:44:16.638Z,3.10
2017-06-12T04:46:43.469Z,3.50
2017-06-12T04:49:11.476Z,3.53
2017-06-12T04:51:39.542Z,3.57
2017-06-12T04:54:07.098Z,4.37
2017-06-12T04:56:34.101Z,4.13
2017-06-12T04:59:00.355Z,4.07
2017-06-12T05:01:27.010Z,4.30
2017-06-12T05:03:55.002Z,4.37
2017-06-12T05:06:22.961Z,3.57
2017-06-12T05:08:50.962Z,4.00
2017-06-12T05:11:17.958Z,4.07
2017-06-12T05:13:44.218Z,4.40
2017-06-12T05:16:10.478Z,3.60
2017-06-12T05:18:38.477Z,3.90
2017-06-12T05:21:05.842Z,3.80
2017-06-12T05:23:33.890Z,4.20
2017-06-12T05:26:01.631Z,4.27
2017-06-12T05:28:27.897Z,4.77
2017-06-12T05:30:54.156Z,3.80
2017-06-12T05:33:20.438Z,3.90
2017-06-12T05:35:47.778Z,4.60
2017-06-12T05:38:14.049Z,3.87
2017-06-12T05:40:42.033Z,4.00
2017-06-12T05:43:08.298Z,4.47
2017-06-12T05:45:34.931Z,3.83
2017-06-12T05:48:01.599Z,4.63
2017-06-12T05:50:28.621Z,4.70
2017-06-12T05:52:56.622Z,4.93
2017-06-12T05:55:24.388Z,4.77
2017-06-12T05:57:52.385Z,4.63
2017-06-12T06:00:18.651Z,4.90
2017-06-12T06:02:44.946Z,4.33
2017-06-12T06:05:11.960Z,5.10
2017-06-12T06:07:39.374Z,4.83
2017-06-12T06:10:06.401Z,6.43
2017-06-12T06:12:34.405Z,4.67
2017-06-12T06:15:02.392Z,5.37
2017-06-12T06:17:30.157Z,5.70
2017-06-12T06:19:57.522Z,5.97
2017-06-12T06:22:25.531Z,5.83
2017-06-12T06:24:53.529Z,6.40
2017-06-12T06:27:21.581Z,7.00
2017-06-12T06:29:49.564Z,6.77
2017-06-12T06:32:16.694Z,6.23
2017-06-12T06:34:43.730Z,6.33
2017-06-12T06:37:09.994Z,6.03
2017-06-12T06:39:36.294Z,8.23
2017-06-12T06:42:02.567Z,6.83
2017-06-12T06:44:30.573Z,5.90
2017-06-12T06:46:57.205Z,7.37
2017-06-12T06:49:23.490Z,7.13
2017-06-12T06:51:50.131Z,8.33
2017-06-12T06:54:17.149Z,6.60
2017-06-12T06:56:45.185Z,7.30
2017-06-12T06:59:12.954Z,7.10
2017-06-12T07:01:40.983Z,6.73
2017-06-12T07:04:07.612Z,6.47
2017-06-12T07:06:34.630Z,6.67
2017-06-12T07:09:01.969Z,7.00
2017-06-12T07:11:28.248Z,6.60
2017-06-12T07:13:54.531Z,6.23
2017-06-12T07:16:20.784Z,5.03
2017-06-12T07:18:49.119Z,6.23
2017-06-12T07:21:15.392Z,6.47
2017-06-12T07:23:41.748Z,7.30
2017-06-12T07:26:09.814Z,6.30
2017-06-12T07:28:37.850Z,7.40
2017-06-12T07:31:05.273Z,6.77
2017-06-12T07:33:33.451Z,7.40
2017-06-12T07:36:01.433Z,8.00
2017-06-12T07:38:28.085Z,7.93
2017-06-12T07:40:55.468Z,6.90
2017-06-12T07:43:22.106Z,7.33
2017-06-12T07:45:48.361Z,7.53
2017-06-12T07:48:15.437Z,8.47
2017-06-12T07:50:43.452Z,7.83
2017-06-12T07:53:12.084Z,7.47
2017-06-12T07:55:40.131Z,7.30
2017-06-12T07:58:07.925Z,8.97
2017-06-12T08:00:34.977Z,7.17
2017-06-12T08:03:02.010Z,5.50
2017-06-12T08:05:30.041Z,7.10
2017-06-12T08:07:56.717Z,5.67
2017-06-12T08:10:23.015Z,6.87
2017-06-12T08:12:49.307Z,6.90
2017-06-12T08:15:16.397Z,6.20
2017-06-12T08:17:42.672Z,6.90
2017-06-12T08:20:10.672Z,5.40
2017-06-12T08:22:38.693Z,5.03
2017-06-12T08:25:05.004Z,6.67
2017-06-12T08:27:31.281Z,6.17
2017-06-12T08:29:57.564Z,5.90
2017-06-12T08:32:23.854Z,5.90
2017-06-12T08:34:50.882Z,5.67
2017-06-12T08:37:17.180Z,5.80
2017-06-12T08:39:45.243Z,5.23
2017-06-12T08:42:12.312Z,6.10
2017-06-12T08:44:38.645Z,6.60
2017-06-12T08:47:05.666Z,5.87
2017-06-12T08:49:31.937Z,5.03
2017-06-12T08:51:58.226Z,5.30
2017-06-12T08:54:26.229Z,5.70
2017-06-12T08:56:54.270Z,5.17
2017-06-12T08:59:22.257Z,6.70
2017-06-12T09:01:48.597Z,6.93
2017-06-12T09:04:16.579Z,6.53
2017-06-12T09:06:42.865Z,5.27
2017-06-12T09:09:09.134Z,5.70
2017-06-12T09:11:37.177Z,5.60
2017-06-12T09:14:05.172Z,5.87
2017-06-12T09:16:31.813Z,5.03
2017-06-12T09:18:58.438Z,5.63
2017-06-12T09:21:24.747Z,4.83
2017-06-12T09:23:51.018Z,4.40
2017-06-12T09:26:19.085Z,4.70
2017-06-12T09:28:47.117Z,5.20
2017-06-12T09:31:13.757Z,4.97
2017-06-12T09:33:40.089Z,4.60
2017-06-12T09:36:06.358Z,5.00
2017-06-12T09:38:32.609Z,4.30
2017-06-12T09:40:58.882Z,3.83
2017-06-12T09:43:25.926Z,4.53
2017-06-12T09:45:52.227Z,3.57
2017-06-12T09:48:20.213Z,3.93
2017-06-12T09:50:46.886Z,3.97
2017-06-12T09:53:13.550Z,4.10
2017-06-12T09:55:39.858Z,3.70
2017-06-12T09:58:06.132Z,4.10
2017-06-12T10:00:34.134Z,3.60
2017-06-12T10:03:02.165Z,4.40
2017-06-12T10:05:29.574Z,4.17
2017-06-12T10:07:56.619Z,3.40
2017-06-12T10:10:22.894Z,4.90
2017-06-12T10:12:49.936Z,3.40
2017-06-12T10:15:16.273Z,3.57
2017-06-12T10:17:42.982Z,3.63
2017-06-12T10:20:10.981Z,3.60
2017-06-12T10:22:38.969Z,3.70
2017-06-12T10:25:05.614Z,4.00
2017-06-12T10:27:32.281Z,3.87
2017-06-12T10:29:59.298Z,3.73
2017-06-12T10:32:27.372Z,3.47
2017-06-12T10:34:55.423Z,3.80
2017-06-12T10:37:23.398Z,4.30
2017-06-12T10:39:50.814Z,3.87
2017-06-12T10:42:17.086Z,3.87
2017-06-12T10:44:44.097Z,2.97
2017-06-12T10:47:10.373Z,3.40
2017-06-12T10:49:36.630Z,3.47
2017-06-12T10:52:04.640Z,3.73
2017-06-12T10:54:32.665Z,3.43
2017-06-12T10:56:59.157Z,3.57
2017-06-12T10:59:26.041Z,5.10
2017-06-12T11:01:52.619Z,3.70
2017-06-12T11:04:20.213Z,3.23
2017-06-12T11:06:48.367Z,4.17
2017-06-12T11:09:16.649Z,4.30
2017-06-12T11:11:44.826Z,4.10
2017-06-12T11:14:12.413Z,3.70
2017-06-12T11:16:39.663Z,5.20
2017-06-12T11:19:06.185Z,3.30
2017-06-12T11:21:32.712Z,3.97
2017-06-12T11:24:00.988Z,3.20
2017-06-12T11:26:47.257Z,3.90
2017-06-12T11:29:15.505Z,3.83
2017-06-12T11:31:43.792Z,3.93
2017-06-12T11:34:10.727Z,4.87
2017-06-12T11:36:37.869Z,4.43
2017-06-12T11:39:05.486Z,3.33
2017-06-12T11:41:33.127Z,3.60
2017-06-12T11:43:59.612Z,3.87
2017-06-12T11:46:27.849Z,3.50
2017-06-12T11:48:55.446Z,3.43
2017-06-12T11:51:21.935Z,5.40
2017-06-12T11:53:48.406Z,3.70
2017-06-12T11:56:16.025Z,3.50
2017-06-12T11:58:44.129Z,4.13
2017-06-12T12:01:12.381Z,3.20
2017-06-12T12:03:40.645Z,5.83
2017-06-12T12:06:08.656Z,4.20
2017-06-12T12:08:36.677Z,4.10
2017-06-12T12:11:03.204Z,3.53
2017-06-12T12:13:29.602Z,4.57
2017-06-12T12:15:56.069Z,4.20
2017-06-12T12:18:24.265Z,4.37
2017-06-12T12:20:50.778Z,4.80
2017-06-12T12:23:17.297Z,5.00
2017-06-12T12:25:43.831Z,4.93
2017-06-12T12:28:10.342Z,4.53
2017-06-12T12:30:38.574Z,3.70
2017-06-12T12:33:06.950Z,5.17
2017-06-12T12:35:34.854Z,4.60
2017-06-12T12:38:01.737Z,4.67
2017-06-12T12:40:28.253Z,4.70
2017-06-12T12:42:55.161Z,4.90
2017-06-12T12:45:21.646Z,4.40
2017-06-12T12:47:49.629Z,4.10
2017-06-12T12:50:17.849Z,4.40
2017-06-12T12:52:44.377Z,4.43
2017-06-12T12:55:10.886Z,6.10
2017-06-12T12:57:38.606Z,5.40
2017-06-12T13:00:05.473Z,4.50
2017-06-12T13:02:33.667Z,3.73
2017-06-12T13:05:01.894Z,4.57
2017-06-12T13:07:29.879Z,5.30
2017-06-12T13:09:56.902Z,5.27
2017-06-12T13:12:24.862Z,5.10
2017-06-12T13:14:51.422Z,5.07
2017-06-12T13:17:18.665Z,5.00
2017-06-12T13:19:45.962Z,4.53
2017-06-12T13:22:14.218Z,5.53
2017-06-12T13:24:40.705Z,5.57
2017-06-12T13:27:07.187Z,5.60
2017-06-12T13:29:34.430Z,5.33
2017-06-12T13:32:01.313Z,5.80
2017-06-12T13:34:29.551Z,5.37
2017-06-12T13:36:57.826Z,4.93
2017-06-12T13:39:25.115Z,5.57
2017-06-12T13:41:53.357Z,5.40
2017-06-12T13:44:20.677Z,5.60
2017-06-12T13:46:48.869Z,4.73
2017-06-12T13:49:15.353Z,5.47
2017-06-12T13:51:43.613Z,4.83
2017-06-12T13:54:11.597Z,5.00
2017-06-12T13:56:38.822Z,5.90
2017-06-12T13:59:05.698Z,5.00
2017-06-12T14:01:32.177Z,5.13
2017-06-12T14:04:00.506Z,4.70
2017-06-12T14:06:28.706Z,4.70
2017-06-12T14:08:56.682Z,5.40
2017-06-12T14:11:23.945Z,6.30
2017-06-12T14:13:52.144Z,6.00
2017-06-12T14:16:19.363Z,5.30
2017-06-12T14:18:45.877Z,5.17
2017-06-12T14:21:14.183Z,5.83
2017-06-12T14:23:42.173Z,5.90
2017-06-12T14:26:08.619Z,5.43
2017-06-12T14:28:36.633Z,6.83
2017-06-12T14:31:05.876Z,5.00
2017-06-12T14:33:33.915Z,4.93
2017-06-12T14:36:01.929Z,5.00
2017-06-12T14:38:29.333Z,5.90
2017-06-12T14:40:56.356Z,5.00
2017-06-12T14:43:24.129Z,5.90
2017-06-12T14:45:50.765Z,5.17
2017-06-12T14:48:17.429Z,4.90
2017-06-12T14:50:44.553Z,4.53
2017-06-12T14:53:12.617Z,5.53
2017-06-12T14:55:39.013Z,5.20
2017-06-12T14:58:06.503Z,5.80
2017-06-12T15:00:32.784Z,5.13
2017-06-12T15:02:59.426Z,5.83
2017-06-12T15:05:27.478Z,5.30
2017-06-12T15:07:55.489Z,5.70
2017-06-12T15:10:23.502Z,5.03
2017-06-12T15:12:49.754Z,4.87
2017-06-12T15:15:16.777Z,6.50
2017-06-12T15:17:45.934Z,5.23
2017-06-12T15:20:12.585Z,4.97
2017-06-12T15:22:40.701Z,6.63
2017-06-12T15:25:08.851Z,5.63
2017-06-12T15:27:51.254Z,6.07
2017-06-12T15:30:21.995Z,6.50
2017-06-12T15:32:50.001Z,7.00
2017-06-12T15:35:16.310Z,6.13
2017-06-12T15:37:42.646Z,6.80
2017-06-12T15:40:10.505Z,6.13
2017-06-12T15:42:37.877Z,5.50
2017-06-12T15:45:07.113Z,5.80
2017-06-12T15:47:35.125Z,5.60
2017-06-12T15:50:02.985Z,5.90
2017-06-12T15:52:30.451Z,5.93
2017-06-12T15:54:57.522Z,5.00
2017-06-12T15:57:24.165Z,6.00
2017-06-12T15:59:50.841Z,5.20
2017-06-12T16:02:18.898Z,6.20
2017-06-12T16:04:46.921Z,6.60
2017-06-12T16:07:13.676Z,6.60
2017-06-12T16:09:41.048Z,6.30
2017-06-12T16:12:08.248Z,7.57
2017-06-12T16:14:36.299Z,7.30
2017-06-12T16:17:02.625Z,6.90
2017-06-12T16:19:30.667Z,6.60
2017-06-12T16:22:22.653Z,6.57
2017-06-12T16:24:51.013Z,6.17
2017-06-12T16:27:18.313Z,6.30
2017-06-12T16:29:45.627Z,6.80
2017-06-12T16:32:12.672Z,5.80
2017-06-12T16:34:41.116Z,5.10
2017-06-12T16:37:09.518Z,6.20
2017-06-12T16:39:39.445Z,7.20
2017-06-12T16:42:06.111Z,6.83
2017-06-12T16:44:34.412Z,5.93
2017-06-12T16:47:01.457Z,5.90
2017-06-12T16:49:28.458Z,6.33
2017-06-12T16:51:57.000Z,6.30
2017-06-12T16:54:25.198Z,5.40
2017-06-12T16:56:56.991Z,6.33
2017-06-12T16:59:25.888Z,5.77
2017-06-12T17:01:54.649Z,6.13
2017-06-12T17:04:23.277Z,6.50
2017-06-12T17:06:57.084Z,7.10
2017-06-12T17:09:24.444Z,6.37
2017-06-12T17:11:52.737Z,6.03
2017-06-12T17:14:19.969Z,6.73
2017-06-12T17:16:46.509Z,6.00
2017-06-12T17:19:12.913Z,5.10
2017-06-12T17:21:43.035Z,6.20
2017-06-12T17:24:11.344Z,5.97
2017-06-12T17:26:39.657Z,5.43
2017-06-12T17:29:07.977Z,6.20
2017-06-12T17:31:42.392Z,6.20
2017-06-12T17:34:10.669Z,6.40
2017-06-12T17:36:39.004Z,6.57
2017-06-12T17:39:06.285Z,6.60
2017-06-12T17:41:32.789Z,5.20
2017-06-12T17:44:03.277Z,5.87
2017-06-12T17:46:31.625Z,6.30
2017-06-12T17:48:58.139Z,6.03
2017-06-12T17:51:24.616Z,6.93
2017-06-12T17:53:52.908Z,6.30
2017-06-12T17:56:25.337Z,7.07
2017-06-12T17:58:52.225Z,6.83
2017-06-12T18:01:19.849Z,7.60
2017-06-12T18:03:46.672Z,6.27
2017-06-12T18:06:15.047Z,6.37
2017-06-12T18:08:41.830Z,6.77
2017-06-12T18:11:11.707Z,6.30
2017-06-12T18:13:38.668Z,5.87
2017-06-12T18:16:05.558Z,5.70
2017-06-12T18:18:33.813Z,4.90
2017-06-12T18:21:00.293Z,5.10
2017-06-12T18:23:28.542Z,5.33
2017-06-12T18:25:56.793Z,4.57
2017-06-12T18:28:23.302Z,6.03
2017-06-12T18:30:51.085Z,5.43
2017-06-12T18:33:17.997Z,4.57
2017-06-12T18:35:44.474Z,5.17
2017-06-12T18:38:11.389Z,4.57
2017-06-12T18:40:39.617Z,4.10
2017-06-12T18:43:08.008Z,4.90
2017-06-12T18:45:36.042Z,5.07
2017-06-12T18:48:04.066Z,4.83
2017-06-12T18:50:32.289Z,5.13
2017-06-12T18:53:00.626Z,4.70
2017-06-12T18:55:28.771Z,5.47
2017-06-12T18:57:56.478Z,4.87
2017-06-12T19:00:22.999Z,4.07
2017-06-12T19:02:51.096Z,4.70
2017-06-12T19:05:19.442Z,4.10
2017-06-12T19:07:47.463Z,3.80
2017-06-12T19:10:14.806Z,4.83
2017-06-12T19:12:43.171Z,5.67
2017-06-12T19:15:11.161Z,4.20
2017-06-12T19:17:38.814Z,5.00
2017-06-12T19:20:07.128Z,10.50
2017-06-12T19:22:35.441Z,6.20
2017-06-12T19:25:02.673Z,5.30
2017-06-12T19:27:30.377Z,4.70
2017-06-12T19:29:58.617Z,4.53
2017-06-12T19:32:29.528Z,4.67
2017-06-12T19:34:57.813Z,4.27
2017-06-12T19:37:25.418Z,4.50
2017-06-12T19:39:51.797Z,3.90
2017-06-12T19:42:18.761Z,3.53
2017-06-12T19:44:45.546Z,4.17
2017-06-12T19:47:13.665Z,4.27
2017-06-12T19:49:41.900Z,4.80
2017-06-12T19:52:09.954Z,4.93
2017-06-12T19:54:36.267Z,5.40
2017-06-12T19:57:02.879Z,5.07
2017-06-12T19:59:31.149Z,4.73
2017-06-12T20:01:59.356Z,4.50
2017-06-12T20:04:26.685Z,4.33
2017-06-12T20:06:54.503Z,4.00
2017-06-12T20:09:21.043Z,4.23
2017-06-12T20:11:48.413Z,3.77
2017-06-12T20:14:14.949Z,4.20
2017-06-12T20:16:45.191Z,5.07
2017-06-12T20:19:13.466Z,5.20
2017-06-12T20:21:41.534Z,5.00
2017-06-12T20:24:07.797Z,5.50
2017-06-12T20:26:35.837Z,4.50
2017-06-12T20:29:02.367Z,4.73
2017-06-12T20:31:30.619Z,4.63
2017-06-12T20:33:57.601Z,4.00
2017-06-12T20:36:24.202Z,3.60
2017-06-12T20:38:51.494Z,4.10
2017-06-12T20:41:19.772Z,3.90
2017-06-12T20:43:46.324Z,4.90
2017-06-12T20:46:14.605Z,3.63
2017-06-12T20:48:42.723Z,3.77
2017-06-12T20:51:10.719Z,4.23
2017-06-12T20:53:37.007Z,4.90
2017-06-12T20:56:05.028Z,4.50
2017-06-12T20:58:33.064Z,4.63
2017-06-12T21:01:01.046Z,4.30
2017-06-12T21:03:29.135Z,5.70
2017-06-12T21:05:55.411Z,4.50
2017-06-12T21:08:23.417Z,4.47
2017-06-12T21:10:51.588Z,4.40
2017-06-12T21:13:18.588Z,4.23
2017-06-12T21:15:46.594Z,5.23
2017-06-12T21:18:14.595Z,4.70
2017-06-12T21:20:42.617Z,4.47
2017-06-12T21:23:10.791Z,4.77
2017-06-12T21:25:38.167Z,3.93
2017-06-12T21:28:06.139Z,4.53
2017-06-12T21:30:34.111Z,3.33
2017-06-12T21:33:01.152Z,4.50
2017-06-12T21:35:28.521Z,3.63
2017-06-12T21:37:54.813Z,4.40
2017-06-12T21:40:22.877Z,3.77
2017-06-12T21:42:50.231Z,3.70
2017-06-12T21:45:17.652Z,3.27
2017-06-12T21:47:44.301Z,3.80
2017-06-12T21:50:12.307Z,3.73
2017-06-12T21:52:40.377Z,3.80
2017-06-12T21:55:06.658Z,3.57
2017-06-12T21:57:34.779Z,4.03
2017-06-12T22:00:02.847Z,4.47
2017-06-12T22:02:29.133Z,4.30
2017-06-12T22:04:56.165Z,3.70
2017-06-12T22:07:24.159Z,3.53
2017-06-12T22:09:52.155Z,4.10
2017-06-12T22:12:18.856Z,3.70
2017-06-12T22:14:46.909Z,4.03
2017-06-12T22:17:14.644Z,3.60
2017-06-12T22:19:41.771Z,4.27
2017-06-12T22:22:09.823Z,3.50
2017-06-12T22:24:37.826Z,3.77
2017-06-12T22:27:05.811Z,4.67
2017-06-12T22:29:34.295Z,4.57
2017-06-12T22:32:01.306Z,4.37
2017-06-12T22:34:27.578Z,3.77
2017-06-12T22:36:54.252Z,3.93
2017-06-12T22:39:20.559Z,3.60
2017-06-12T22:41:47.943Z,4.43
2017-06-12T22:44:15.350Z,3.47
2017-06-12T22:46:41.634Z,3.60
2017-06-12T22:49:07.897Z,4.10
2017-06-12T22:51:35.705Z,3.37
2017-06-12T22:54:03.778Z,3.50
2017-06-12T22:56:31.784Z,3.40
2017-06-12T22:58:58.452Z,3.83
2017-06-12T23:01:24.718Z,4.20
2017-06-12T23:03:52.805Z,3.90
2017-06-12T23:06:20.162Z,3.30
2017-06-12T23:08:46.989Z,4.03
2017-06-12T23:11:13.286Z,3.80
2017-06-12T23:13:39.921Z,3.50
2017-06-12T23:16:06.170Z,3.77
2017-06-12T23:18:32.551Z,3.70
2017-06-12T23:20:59.582Z,4.13
2017-06-12T23:23:25.965Z,3.60
2017-06-12T23:26:09.411Z,3.47
2017-06-12T23:28:35.673Z,4.00
2017-06-12T23:31:03.798Z,4.30
2017-06-12T23:33:30.431Z,4.13
2017-06-12T23:35:56.710Z,3.53
2017-06-12T23:38:23.342Z,4.10
2017-06-12T23:40:49.607Z,3.43
2017-06-12T23:43:16.280Z,4.40
2017-06-12T23:45:43.312Z,3.97
2017-06-12T23:48:09.625Z,4.00
2017-06-12T23:50:35.879Z,3.80
2017-06-12T23:53:03.276Z,3.63
2017-06-12T23:55:31.288Z,3.77
2017-06-12T23:57:58.782Z,3.97
